sensor_id;sensor_type;location;lat;lon;timestamp;pressure;altitude;pressure_sealevel;temperature;humidity
53619;BME280;39505;53.040;18.488;2023-02-22T00:00:11;101289.81;;;4.29;100.00
53619;BME280;39505;53.040;18.488;2023-02-22T00:00:51;101289.09;;;4.25;100.00
53619;BME280;39505;53.040;18.488;2023-02-22T00:01:06;101289.16;;;4.24;100.00
53619;BME280;39505;53.040;18.488;2023-02-22T00:01:31;101294.59;;;4.22;100.00
53619;BME280;39505;53.040;18.488;2023-02-22T00:01:47;101292.00;;;4.21;100.00
53619;BME280;39505;53.040;18.488;2023-02-22T00:02:02;101289.34;;;4.21;100.00
53619;BME280;39505;53.040;18.488;2023-02-22T00:02:56;101297.53;;;4.16;100.00
53619;BME280;39505;53.040;18.488;2023-02-22T00:03:13;101296.75;;;4.14;100.00
53619;BME280;39505;53.040;18.488;2023-02-22T00:03:29;101293.31;;;4.12;100.00
53619;BME280;39505;53.040;18.488;2023-02-22T00:03:48;101288.16;;;4.09;100.00
53619;BME280;39505;53.040;18.488;2023-02-22T00:04:06;101286.44;;;4.08;100.00
53619;BME280;39505;53.040;18.488;2023-02-22T00:04:27;101293.63;;;4.06;100.00
53619;BME280;39505;53.040;18.488;2023-02-22T00:04:41;101291.94;;;4.05;100.00
53619;BME280;39505;53.040;18.488;2023-02-22T00:04:54;101292.84;;;4.04;100.00
53619;BME280;39505;53.040;18.488;2023-02-22T00:05:07;101293.78;;;4.03;100.00
53619;BME280;39505;53.040;18.488;2023-02-22T00:05:20;101297.38;;;4.02;100.00
53619;BME280;39505;53.040;18.488;2023-02-22T00:05:34;101295.66;;;4.01;100.00
53619;BME280;39505;53.040;18.488;2023-02-22T00:05:47;101298.38;;;3.99;100.00
53619;BME280;39505;53.040;18.488;2023-02-22T00:06:05;101295.81;;;3.98;100.00
53619;BME280;39505;53.040;18.488;2023-02-22T00:06:20;101289.66;;;3.97;100.00
53619;BME280;39505;53.040;18.488;2023-02-22T00:06:36;101299.47;;;3.95;100.00
53619;BME280;39505;53.040;18.488;2023-02-22T00:06:49;101291.59;;;3.94;100.00
53619;BME280;39505;53.040;18.488;2023-02-22T00:07:02;101297.84;;;3.93;100.00
53619;BME280;39505;53.040;18.488;2023-02-22T00:07:15;101293.44;;;3.92;100.00
53619;BME280;39505;53.040;18.488;2023-02-22T00:07:29;101299.69;;;3.91;100.00
53619;BME280;39505;53.040;18.488;2023-02-22T00:07:42;101295.31;;;3.89;100.00
53619;BME280;39505;53.040;18.488;2023-02-22T00:07:56;101295.41;;;3.88;100.00
53619;BME280;39505;53.040;18.488;2023-02-22T00:08:13;101299.94;;;3.86;100.00
53619;BME280;39505;53.040;18.488;2023-02-22T00:08:27;101292.06;;;3.84;100.00
53619;BME280;39505;53.040;18.488;2023-02-22T00:08:42;101298.31;;;3.83;100.00
53619;BME280;39505;53.040;18.488;2023-02-22T00:08:55;101301.88;;;3.82;100.00
53619;BME280;39505;53.040;18.488;2023-02-22T00:09:08;101294.88;;;3.81;100.00
53619;BME280;39505;53.040;18.488;2023-02-22T00:09:22;101293.13;;;3.80;100.00
53619;BME280;39505;53.040;18.488;2023-02-22T00:09:35;101296.72;;;3.79;100.00
53619;BME280;39505;53.040;18.488;2023-02-22T00:09:48;101295.00;;;3.78;100.00
53619;BME280;39505;53.040;18.488;2023-02-22T00:10:01;101303.91;;;3.77;100.00
53619;BME280;39505;53.040;18.488;2023-02-22T00:10:15;101299.50;;;3.76;100.00
53619;BME280;39505;53.040;18.488;2023-02-22T00:10:32;101303.13;;;3.75;100.00
53619;BME280;39505;53.040;18.488;2023-02-22T00:10:45;101307.63;;;3.73;100.00
53619;BME280;39505;53.040;18.488;2023-02-22T00:11:04;101300.59;;;3.72;100.00
53619;BME280;39505;53.040;18.488;2023-02-22T00:11:20;101300.69;;;3.71;100.00
53619;BME280;39505;53.040;18.488;2023-02-22T00:11:33;101302.50;;;3.70;100.00
53619;BME280;39505;53.040;18.488;2023-02-22T00:11:47;101301.63;;;3.70;100.00
53619;BME280;39505;53.040;18.488;2023-02-22T00:12:00;101299.91;;;3.68;100.00
53619;BME280;39505;53.040;18.488;2023-02-22T00:12:13;101302.63;;;3.67;100.00
53619;BME280;39505;53.040;18.488;2023-02-22T00:12:28;101298.28;;;3.66;100.00
53619;BME280;39505;53.040;18.488;2023-02-22T00:12:41;101301.84;;;3.65;100.00
53619;BME280;39505;53.040;18.488;2023-02-22T00:12:55;101302.78;;;3.64;100.00
53619;BME280;39505;53.040;18.488;2023-02-22T00:13:09;101306.34;;;3.63;100.00
53619;BME280;39505;53.040;18.488;2023-02-22T00:13:22;101298.50;;;3.61;100.00
53619;BME280;39505;53.040;18.488;2023-02-22T00:13:36;101302.91;;;3.61;100.00
53619;BME280;39505;53.040;18.488;2023-02-22T00:13:49;101294.13;;;3.60;100.00
53619;BME280;39505;53.040;18.488;2023-02-22T00:14:03;101305.66;;;3.59;100.00
53619;BME280;39505;53.040;18.488;2023-02-22T00:14:17;101302.13;;;3.59;100.00
53619;BME280;39505;53.040;18.488;2023-02-22T00:14:32;101303.06;;;3.58;100.00
53619;BME280;39505;53.040;18.488;2023-02-22T00:14:45;101306.66;;;3.57;100.00
53619;BME280;39505;53.040;18.488;2023-02-22T00:14:58;101300.50;;;3.56;100.00
53619;BME280;39505;53.040;18.488;2023-02-22T00:15:12;101304.09;;;3.55;100.00
53619;BME280;39505;53.040;18.488;2023-02-22T00:15:26;101302.34;;;3.54;100.00
53619;BME280;39505;53.040;18.488;2023-02-22T00:15:39;101299.81;;;3.53;100.00
53619;BME280;39505;53.040;18.488;2023-02-22T00:15:53;101306.03;;;3.52;100.00
53619;BME280;39505;53.040;18.488;2023-02-22T00:16:07;101306.97;;;3.51;100.00
53619;BME280;39505;53.040;18.488;2023-02-22T00:16:25;101304.38;;;3.49;100.00
53619;BME280;39505;53.040;18.488;2023-02-22T00:16:38;101303.53;;;3.49;100.00
53619;BME280;39505;53.040;18.488;2023-02-22T00:16:51;101301.78;;;3.47;100.00
53619;BME280;39505;53.040;18.488;2023-02-22T00:17:04;101308.03;;;3.46;100.00
53619;BME280;39505;53.040;18.488;2023-02-22T00:17:18;101311.59;;;3.45;100.00
53619;BME280;39505;53.040;18.488;2023-02-22T00:17:32;101306.31;;;3.45;100.00
53619;BME280;39505;53.040;18.488;2023-02-22T00:17:45;101301.09;;;3.44;100.00
53619;BME280;39505;53.040;18.488;2023-02-22T00:18:02;101299.38;;;3.43;100.00
53619;BME280;39505;53.040;18.488;2023-02-22T00:18:16;101308.28;;;3.42;100.00
53619;BME280;39505;53.040;18.488;2023-02-22T00:18:31;101314.47;;;3.41;100.00
53619;BME280;39505;53.040;18.488;2023-02-22T00:18:44;101309.25;;;3.39;100.00
53619;BME280;39505;53.040;18.488;2023-02-22T00:18:57;101302.25;;;3.38;100.00
53619;BME280;39505;53.040;18.488;2023-02-22T00:19:11;101311.03;;;3.39;100.00
53619;BME280;39505;53.040;18.488;2023-02-22T00:19:24;101305.81;;;3.37;100.00
53619;BME280;39505;53.040;18.488;2023-02-22T00:19:38;101304.09;;;3.36;100.00
53619;BME280;39505;53.040;18.488;2023-02-22T00:19:51;101304.09;;;3.36;100.00
53619;BME280;39505;53.040;18.488;2023-02-22T00:20:04;101308.63;;;3.34;100.00
53619;BME280;39505;53.040;18.488;2023-02-22T00:20:19;101305.97;;;3.34;100.00
53619;BME280;39505;53.040;18.488;2023-02-22T00:20:32;101307.75;;;3.34;100.00
53619;BME280;39505;53.040;18.488;2023-02-22T00:20:45;101313.97;;;3.33;100.00
53619;BME280;39505;53.040;18.488;2023-02-22T00:21:00;101306.97;;;3.32;100.00
53619;BME280;39505;53.040;18.488;2023-02-22T00:21:14;101314.88;;;3.33;100.00
53619;BME280;39505;53.040;18.488;2023-02-22T00:21:28;101307.91;;;3.31;100.00
53619;BME280;39505;53.040;18.488;2023-02-22T00:21:42;101314.13;;;3.30;100.00
53619;BME280;39505;53.040;18.488;2023-02-22T00:21:56;101315.06;;;3.29;100.00
53619;BME280;39505;53.040;18.488;2023-02-22T00:22:09;101311.56;;;3.28;100.00
53619;BME280;39505;53.040;18.488;2023-02-22T00:22:24;101308.91;;;3.28;100.00
53619;BME280;39505;53.040;18.488;2023-02-22T00:22:37;101314.28;;;3.26;100.00
53619;BME280;39505;53.040;18.488;2023-02-22T00:22:50;101309.91;;;3.25;100.00
53619;BME280;39505;53.040;18.488;2023-02-22T00:23:05;101314.34;;;3.25;100.00
53619;BME280;39505;53.040;18.488;2023-02-22T00:23:21;101308.28;;;3.23;100.00
53619;BME280;39505;53.040;18.488;2023-02-22T00:23:34;101308.28;;;3.23;100.00
53619;BME280;39505;53.040;18.488;2023-02-22T00:23:51;101317.13;;;3.22;100.00
53619;BME280;39505;53.040;18.488;2023-02-22T00:24:06;101311.03;;;3.20;100.00
53619;BME280;39505;53.040;18.488;2023-02-22T00:24:34;101311.13;;;3.18;100.00
53619;BME280;39505;53.040;18.488;2023-02-22T00:24:47;101312.94;;;3.18;100.00
53619;BME280;39505;53.040;18.488;2023-02-22T00:25:01;101313.84;;;3.17;100.00
53619;BME280;39505;53.040;18.488;2023-02-22T00:25:15;101308.72;;;3.14;100.00
53619;BME280;39505;53.040;18.488;2023-02-22T00:25:29;101314.78;;;3.16;100.00
53619;BME280;39505;53.040;18.488;2023-02-22T00:25:43;101308.72;;;3.14;100.00
53619;BME280;39505;53.040;18.488;2023-02-22T00:25:57;101312.25;;;3.13;100.00
53619;BME280;39505;53.040;18.488;2023-02-22T00:26:11;101303.53;;;3.11;100.00
53619;BME280;39505;53.040;18.488;2023-02-22T00:26:32;101313.22;;;3.12;100.00
53619;BME280;39505;53.040;18.488;2023-02-22T00:26:45;101314.13;;;3.11;100.00
53619;BME280;39505;53.040;18.488;2023-02-22T00:26:58;101313.28;;;3.10;100.00
53619;BME280;39505;53.040;18.488;2023-02-22T00:27:11;101310.63;;;3.10;100.00
53619;BME280;39505;53.040;18.488;2023-02-22T00:27:25;101314.22;;;3.09;100.00
53619;BME280;39505;53.040;18.488;2023-02-22T00:27:45;101314.28;;;3.08;100.00
53619;BME280;39505;53.040;18.488;2023-02-22T00:28:11;101321.38;;;3.07;100.00
53619;BME280;39505;53.040;18.488;2023-02-22T00:28:25;101318.78;;;3.05;100.00
53619;BME280;39505;53.040;18.488;2023-02-22T00:28:38;101314.41;;;3.04;100.00
53619;BME280;39505;53.040;18.488;2023-02-22T00:28:52;101321.44;;;3.05;100.00
53619;BME280;39505;53.040;18.488;2023-02-22T00:29:05;101318.84;;;3.04;100.00
53619;BME280;39505;53.040;18.488;2023-02-22T00:29:20;101320.66;;;3.03;100.00
53619;BME280;39505;53.040;18.488;2023-02-22T00:29:35;101320.72;;;3.02;100.00
53619;BME280;39505;53.040;18.488;2023-02-22T00:29:48;101315.41;;;3.02;100.00
53619;BME280;39505;53.040;18.488;2023-02-22T00:30:01;101319.84;;;3.01;100.00
53619;BME280;39505;53.040;18.488;2023-02-22T00:30:15;101315.50;;;3.00;100.00
53619;BME280;39505;53.040;18.488;2023-02-22T00:30:31;101318.16;;;3.00;100.00
53619;BME280;39505;53.040;18.488;2023-02-22T00:30:45;101321.72;;;2.99;100.00
53619;BME280;39505;53.040;18.488;2023-02-22T00:30:59;101318.22;;;2.99;100.00
53619;BME280;39505;53.040;18.488;2023-02-22T00:31:18;101314.78;;;2.97;100.00
53619;BME280;39505;53.040;18.488;2023-02-22T00:31:36;101320.97;;;2.96;100.00
53619;BME280;39505;53.040;18.488;2023-02-22T00:31:49;101320.13;;;2.95;100.00
53619;BME280;39505;53.040;18.488;2023-02-22T00:32:02;101320.13;;;2.95;100.00
53619;BME280;39505;53.040;18.488;2023-02-22T00:32:16;101319.34;;;2.93;100.00
53619;BME280;39505;53.040;18.488;2023-02-22T00:32:29;101322.94;;;2.92;100.00
53619;BME280;39505;53.040;18.488;2023-02-22T00:32:45;101319.44;;;2.92;100.00
53619;BME280;39505;53.040;18.488;2023-02-22T00:32:58;101315.91;;;2.91;100.00
53619;BME280;39505;53.040;18.488;2023-02-22T00:33:14;101320.41;;;2.89;100.00
53619;BME280;39505;53.040;18.488;2023-02-22T00:33:27;101324.78;;;2.90;100.00
53619;BME280;39505;53.040;18.488;2023-02-22T00:33:40;101323.06;;;2.89;100.00
53619;BME280;39505;53.040;18.488;2023-02-22T00:33:54;101324.00;;;2.88;100.00
53619;BME280;39505;53.040;18.488;2023-02-22T00:34:07;101325.69;;;2.89;100.00
53619;BME280;39505;53.040;18.488;2023-02-22T00:34:20;101317.84;;;2.88;100.00
53619;BME280;39505;53.040;18.488;2023-02-22T00:34:34;101316.97;;;2.87;100.00
53619;BME280;39505;53.040;18.488;2023-02-22T00:34:50;101319.59;;;2.87;100.00
53619;BME280;39505;53.040;18.488;2023-02-22T00:35:04;101323.19;;;2.86;100.00
53619;BME280;39505;53.040;18.488;2023-02-22T00:35:20;101324.13;;;2.85;100.00
53619;BME280;39505;53.040;18.488;2023-02-22T00:35:33;101316.16;;;2.85;100.00
53619;BME280;39505;53.040;18.488;2023-02-22T00:35:46;101316.25;;;2.83;100.00
53619;BME280;39505;53.040;18.488;2023-02-22T00:36:00;101319.81;;;2.82;100.00
53619;BME280;39505;53.040;18.488;2023-02-22T00:36:13;101317.16;;;2.82;100.00
53619;BME280;39505;53.040;18.488;2023-02-22T00:36:26;101324.25;;;2.82;100.00
53619;BME280;39505;53.040;18.488;2023-02-22T00:36:44;101319.03;;;2.80;100.00
53619;BME280;39505;53.040;18.488;2023-02-22T00:36:57;101313.72;;;2.80;100.00
53619;BME280;39505;53.040;18.488;2023-02-22T00:37:14;101317.31;;;2.79;100.00
53619;BME280;39505;53.040;18.488;2023-02-22T00:37:27;101325.28;;;2.79;100.00
53619;BME280;39505;53.040;18.488;2023-02-22T00:37:46;101323.63;;;2.77;100.00
53619;BME280;39505;53.040;18.488;2023-02-22T00:38:01;101326.28;;;2.77;100.00
53619;BME280;39505;53.040;18.488;2023-02-22T00:38:17;101329.81;;;2.76;100.00
53619;BME280;39505;53.040;18.488;2023-02-22T00:38:32;101328.13;;;2.75;100.00
53619;BME280;39505;53.040;18.488;2023-02-22T00:38:44;101329.91;;;2.74;100.00
53619;BME280;39505;53.040;18.488;2023-02-22T00:38:57;101326.38;;;2.74;100.00
53619;BME280;39505;53.040;18.488;2023-02-22T00:39:10;101324.69;;;2.73;100.00
53619;BME280;39505;53.040;18.488;2023-02-22T00:39:24;101322.03;;;2.73;100.00
53619;BME280;39505;53.040;18.488;2023-02-22T00:39:37;101327.34;;;2.73;100.00
53619;BME280;39505;53.040;18.488;2023-02-22T00:39:51;101326.47;;;2.72;100.00
53619;BME280;39505;53.040;18.488;2023-02-22T00:40:05;101323.84;;;2.72;100.00
53619;BME280;39505;53.040;18.488;2023-02-22T00:40:22;101326.53;;;2.71;100.00
53619;BME280;39505;53.040;18.488;2023-02-22T00:40:35;101331.84;;;2.71;100.00
53619;BME280;39505;53.040;18.488;2023-02-22T00:40:48;101321.31;;;2.69;100.00
53619;BME280;39505;53.040;18.488;2023-02-22T00:41:02;101332.75;;;2.70;100.00
53619;BME280;39505;53.040;18.488;2023-02-22T00:41:15;101330.09;;;2.70;100.00
53619;BME280;39505;53.040;18.488;2023-02-22T00:41:28;101329.31;;;2.68;100.00
53619;BME280;39505;53.040;18.488;2023-02-22T00:41:41;101331.03;;;2.69;100.00
53619;BME280;39505;53.040;18.488;2023-02-22T00:41:54;101333.69;;;2.69;100.00
53619;BME280;39505;53.040;18.488;2023-02-22T00:42:07;101329.31;;;2.68;100.00
53619;BME280;39505;53.040;18.488;2023-02-22T00:42:20;101331.94;;;2.68;100.00
53619;BME280;39505;53.040;18.488;2023-02-22T00:42:33;101330.25;;;2.67;100.00
53619;BME280;39505;53.040;18.488;2023-02-22T00:42:46;101331.94;;;2.68;100.00
53619;BME280;39505;53.040;18.488;2023-02-22T00:43:00;101331.19;;;2.66;100.00
53619;BME280;39505;53.040;18.488;2023-02-22T00:43:14;101333.84;;;2.66;100.00
53619;BME280;39505;53.040;18.488;2023-02-22T00:43:27;101335.69;;;2.63;100.00
53619;BME280;39505;53.040;18.488;2023-02-22T00:43:40;101327.75;;;2.63;100.00
53619;BME280;39505;53.040;18.488;2023-02-22T00:43:53;101328.66;;;2.62;100.00
53619;BME280;39505;53.040;18.488;2023-02-22T00:44:06;101332.25;;;2.61;100.00
53619;BME280;39505;53.040;18.488;2023-02-22T00:44:18;101330.50;;;2.60;100.00
53619;BME280;39505;53.040;18.488;2023-02-22T00:44:31;101332.25;;;2.61;100.00
53619;BME280;39505;53.040;18.488;2023-02-22T00:44:44;101335.81;;;2.60;100.00
53619;BME280;39505;53.040;18.488;2023-02-22T00:44:56;101338.44;;;2.60;100.00
53619;BME280;39505;53.040;18.488;2023-02-22T00:45:11;101338.50;;;2.59;100.00
53619;BME280;39505;53.040;18.488;2023-02-22T00:45:26;101337.66;;;2.58;100.00
53619;BME280;39505;53.040;18.488;2023-02-22T00:45:38;101332.38;;;2.58;100.00
53619;BME280;39505;53.040;18.488;2023-02-22T00:45:51;101335.94;;;2.57;100.00
53619;BME280;39505;53.040;18.488;2023-02-22T00:46:06;101333.31;;;2.57;100.00
53619;BME280;39505;53.040;18.488;2023-02-22T00:46:23;101337.75;;;2.57;100.00
53619;BME280;39505;53.040;18.488;2023-02-22T00:46:41;101329.88;;;2.55;100.00
53619;BME280;39505;53.040;18.488;2023-02-22T00:46:55;101336.06;;;2.54;100.00
53619;BME280;39505;53.040;18.488;2023-02-22T00:47:08;101336.06;;;2.54;100.00
53619;BME280;39505;53.040;18.488;2023-02-22T00:47:20;101343.09;;;2.55;100.00
53619;BME280;39505;53.040;18.488;2023-02-22T00:47:33;101332.56;;;2.54;100.00
53619;BME280;39505;53.040;18.488;2023-02-22T00:47:46;101332.63;;;2.52;100.00
53619;BME280;39505;53.040;18.488;2023-02-22T00:47:59;101327.34;;;2.52;100.00
53619;BME280;39505;53.040;18.488;2023-02-22T00:48:14;101337.06;;;2.52;100.00
53619;BME280;39505;53.040;18.488;2023-02-22T00:48:27;101340.56;;;2.52;100.00
53619;BME280;39505;53.040;18.488;2023-02-22T00:48:40;101336.22;;;2.51;100.00
53619;BME280;39505;53.040;18.488;2023-02-22T00:48:53;101332.78;;;2.49;100.00
53619;BME280;39505;53.040;18.488;2023-02-22T00:49:06;101337.13;;;2.50;100.00
53619;BME280;39505;53.040;18.488;2023-02-22T00:49:19;101334.47;;;2.50;100.00
53619;BME280;39505;53.040;18.488;2023-02-22T00:49:32;101333.72;;;2.48;100.00
53619;BME280;39505;53.040;18.488;2023-02-22T00:49:46;101335.47;;;2.48;100.00
53619;BME280;39505;53.040;18.488;2023-02-22T00:49:59;101339.00;;;2.48;100.00
53619;BME280;39505;53.040;18.488;2023-02-22T00:50:13;101337.31;;;2.46;100.00
53619;BME280;39505;53.040;18.488;2023-02-22T00:50:29;101343.50;;;2.46;100.00
53619;BME280;39505;53.040;18.488;2023-02-22T00:50:42;101347.06;;;2.45;100.00
53619;BME280;39505;53.040;18.488;2023-02-22T00:50:55;101340.91;;;2.44;100.00
53619;BME280;39505;53.040;18.488;2023-02-22T00:51:08;101340.06;;;2.44;100.00
53619;BME280;39505;53.040;18.488;2023-02-22T00:51:24;101344.47;;;2.43;100.00
53619;BME280;39505;53.040;18.488;2023-02-22T00:51:37;101344.56;;;2.42;100.00
53619;BME280;39505;53.040;18.488;2023-02-22T00:51:49;101341.03;;;2.41;100.00
53619;BME280;39505;53.040;18.488;2023-02-22T00:52:02;101340.16;;;2.41;100.00
53619;BME280;39505;53.040;18.488;2023-02-22T00:52:16;101344.63;;;2.40;100.00
53619;BME280;39505;53.040;18.488;2023-02-22T00:52:28;101343.75;;;2.40;100.00
53619;BME280;39505;53.040;18.488;2023-02-22T00:52:42;101342.91;;;2.39;100.00
53619;BME280;39505;53.040;18.488;2023-02-22T00:52:56;101342.03;;;2.39;100.00
53619;BME280;39505;53.040;18.488;2023-02-22T00:53:09;101346.47;;;2.38;100.00
53619;BME280;39505;53.040;18.488;2023-02-22T00:53:23;101344.66;;;2.39;100.00
53619;BME280;39505;53.040;18.488;2023-02-22T00:53:36;101349.09;;;2.38;100.00
53619;BME280;39505;53.040;18.488;2023-02-22T00:53:49;101347.41;;;2.37;100.00
53619;BME280;39505;53.040;18.488;2023-02-22T00:54:01;101343.03;;;2.36;100.00
53619;BME280;39505;53.040;18.488;2023-02-22T00:54:16;101348.31;;;2.36;100.00
53619;BME280;39505;53.040;18.488;2023-02-22T00:54:31;101343.88;;;2.37;100.00
53619;BME280;39505;53.040;18.488;2023-02-22T00:54:43;101346.59;;;2.35;100.00
53619;BME280;39505;53.040;18.488;2023-02-22T00:54:56;101344.03;;;2.34;100.00
53619;BME280;39505;53.040;18.488;2023-02-22T00:55:15;101349.31;;;2.34;100.00
53619;BME280;39505;53.040;18.488;2023-02-22T00:55:30;101349.31;;;2.34;100.00
53619;BME280;39505;53.040;18.488;2023-02-22T00:55:43;101348.50;;;2.32;100.00
53619;BME280;39505;53.040;18.488;2023-02-22T00:55:56;101348.56;;;2.30;100.00
53619;BME280;39505;53.040;18.488;2023-02-22T00:56:09;101353.00;;;2.30;100.00
53619;BME280;39505;53.040;18.488;2023-02-22T00:56:22;101353.06;;;2.28;100.00
53619;BME280;39505;53.040;18.488;2023-02-22T00:56:35;101350.41;;;2.28;100.00
53619;BME280;39505;53.040;18.488;2023-02-22T00:56:48;101354.00;;;2.27;100.00
53619;BME280;39505;53.040;18.488;2023-02-22T00:57:02;101350.63;;;2.23;100.00
53619;BME280;39505;53.040;18.488;2023-02-22T00:57:15;101348.75;;;2.26;100.00
53619;BME280;39505;53.040;18.488;2023-02-22T00:57:29;101353.25;;;2.23;100.00
53619;BME280;39505;53.040;18.488;2023-02-22T00:57:42;101350.63;;;2.23;100.00
53619;BME280;39505;53.040;18.488;2023-02-22T00:57:55;101349.75;;;2.23;100.00
53619;BME280;39505;53.040;18.488;2023-02-22T00:58:09;101361.28;;;2.22;100.00
53619;BME280;39505;53.040;18.488;2023-02-22T00:58:22;101353.41;;;2.20;100.00
53619;BME280;39505;53.040;18.488;2023-02-22T00:58:35;101354.31;;;2.19;100.00
53619;BME280;39505;53.040;18.488;2023-02-22T00:58:48;101356.03;;;2.20;100.00
53619;BME280;39505;53.040;18.488;2023-02-22T00:59:01;101349.91;;;2.20;100.00
53619;BME280;39505;53.040;18.488;2023-02-22T00:59:14;101348.22;;;2.17;100.00
53619;BME280;39505;53.040;18.488;2023-02-22T00:59:27;101353.50;;;2.17;100.00
53619;BME280;39505;53.040;18.488;2023-02-22T00:59:42;101354.41;;;2.18;100.00
53619;BME280;39505;53.040;18.488;2023-02-22T00:59:55;101351.81;;;2.16;100.00
53619;BME280;39505;53.040;18.488;2023-02-22T01:00:14;101350.94;;;2.16;100.00
53619;BME280;39505;53.040;18.488;2023-02-22T01:00:40;101350.06;;;2.15;100.00
53619;BME280;39505;53.040;18.488;2023-02-22T01:00:56;101353.66;;;2.14;100.00
53619;BME280;39505;53.040;18.488;2023-02-22T01:01:10;101356.34;;;2.13;100.00
53619;BME280;39505;53.040;18.488;2023-02-22T01:01:23;101351.94;;;2.13;100.00
53619;BME280;39505;53.040;18.488;2023-02-22T01:01:36;101349.31;;;2.13;100.00
53619;BME280;39505;53.040;18.488;2023-02-22T01:01:49;101352.84;;;2.12;100.00
53619;BME280;39505;53.040;18.488;2023-02-22T01:02:02;101349.34;;;2.12;100.00
53619;BME280;39505;53.040;18.488;2023-02-22T01:02:15;101354.66;;;2.12;100.00
53619;BME280;39505;53.040;18.488;2023-02-22T01:02:28;101353.78;;;2.11;100.00
53619;BME280;39505;53.040;18.488;2023-02-22T01:02:42;101352.91;;;2.11;100.00
53619;BME280;39505;53.040;18.488;2023-02-22T01:02:56;101350.25;;;2.11;100.00
53619;BME280;39505;53.040;18.488;2023-02-22T01:03:11;101352.06;;;2.10;100.00
53619;BME280;39505;53.040;18.488;2023-02-22T01:03:26;101351.19;;;2.10;100.00
53619;BME280;39505;53.040;18.488;2023-02-22T01:03:39;101356.50;;;2.10;100.00
53619;BME280;39505;53.040;18.488;2023-02-22T01:03:52;101358.28;;;2.09;100.00
53619;BME280;39505;53.040;18.488;2023-02-22T01:04:05;101346.81;;;2.09;100.00
53619;BME280;39505;53.040;18.488;2023-02-22T01:04:19;101364.47;;;2.08;100.00
53619;BME280;39505;53.040;18.488;2023-02-22T01:04:31;101348.59;;;2.08;100.00
53619;BME280;39505;53.040;18.488;2023-02-22T01:05:01;101355.69;;;2.08;100.00
53619;BME280;39505;53.040;18.488;2023-02-22T01:05:18;101355.75;;;2.06;100.00
53619;BME280;39505;53.040;18.488;2023-02-22T01:05:32;101358.34;;;2.08;100.00
53619;BME280;39505;53.040;18.488;2023-02-22T01:05:47;101352.38;;;2.02;100.00
53619;BME280;39505;53.040;18.488;2023-02-22T01:06:00;101358.38;;;2.06;100.00
53619;BME280;39505;53.040;18.488;2023-02-22T01:06:12;101356.69;;;2.05;100.00
53619;BME280;39505;53.040;18.488;2023-02-22T01:06:25;101358.47;;;2.05;100.00
53619;BME280;39505;53.040;18.488;2023-02-22T01:06:37;101352.31;;;2.04;100.00
53619;BME280;39505;53.040;18.488;2023-02-22T01:06:50;101352.31;;;2.04;100.00
53619;BME280;39505;53.040;18.488;2023-02-22T01:07:03;101351.44;;;2.03;100.00
53619;BME280;39505;53.040;18.488;2023-02-22T01:07:16;101351.44;;;2.03;100.00
53619;BME280;39505;53.040;18.488;2023-02-22T01:07:29;101353.25;;;2.03;100.00
53619;BME280;39505;53.040;18.488;2023-02-22T01:07:42;101350.59;;;2.03;100.00
53619;BME280;39505;53.040;18.488;2023-02-22T01:07:56;101354.16;;;2.02;100.00
53619;BME280;39505;53.040;18.488;2023-02-22T01:08:11;101349.00;;;1.99;100.00
53619;BME280;39505;53.040;18.488;2023-02-22T01:08:24;101359.44;;;2.02;100.00
53619;BME280;39505;53.040;18.488;2023-02-22T01:08:36;101357.72;;;2.01;100.00
53619;BME280;39505;53.040;18.488;2023-02-22T01:08:50;101352.44;;;2.01;100.00
53619;BME280;39505;53.040;18.488;2023-02-22T01:09:03;101356.88;;;2.00;100.00
53619;BME280;39505;53.040;18.488;2023-02-22T01:09:16;101355.13;;;1.99;100.00
53619;BME280;39505;53.040;18.488;2023-02-22T01:09:28;101351.66;;;1.99;100.00
53619;BME280;39505;53.040;18.488;2023-02-22T01:09:41;101347.25;;;1.98;100.00
53619;BME280;39505;53.040;18.488;2023-02-22T01:09:55;101349.06;;;1.97;100.00
53619;BME280;39505;53.040;18.488;2023-02-22T01:10:10;101352.63;;;1.96;100.00
53619;BME280;39505;53.040;18.488;2023-02-22T01:10:26;101357.06;;;1.96;100.00
53619;BME280;39505;53.040;18.488;2023-02-22T01:10:39;101363.25;;;1.95;100.00
53619;BME280;39505;53.040;18.488;2023-02-22T01:10:51;101358.13;;;1.92;100.00
53619;BME280;39505;53.040;18.488;2023-02-22T01:11:04;101356.38;;;1.91;100.00
53619;BME280;39505;53.040;18.488;2023-02-22T01:11:17;101355.53;;;1.90;100.00
53619;BME280;39505;53.040;18.488;2023-02-22T01:11:31;101353.72;;;1.91;100.00
53619;BME280;39505;53.040;18.488;2023-02-22T01:11:44;101354.66;;;1.90;100.00
53619;BME280;39505;53.040;18.488;2023-02-22T01:11:56;101356.50;;;1.88;100.00
53619;BME280;39505;53.040;18.488;2023-02-22T01:12:09;101351.22;;;1.88;100.00
53619;BME280;39505;53.040;18.488;2023-02-22T01:12:22;101352.22;;;1.85;100.00
53619;BME280;39505;53.040;18.488;2023-02-22T01:12:35;101354.78;;;1.87;100.00
53619;BME280;39505;53.040;18.488;2023-02-22T01:12:48;101353.06;;;1.86;100.00
53619;BME280;39505;53.040;18.488;2023-02-22T01:13:01;101351.34;;;1.85;100.00
53619;BME280;39505;53.040;18.488;2023-02-22T01:13:16;101355.81;;;1.82;100.00
53619;BME280;39505;53.040;18.488;2023-02-22T01:13:31;101349.63;;;1.84;100.00
53619;BME280;39505;53.040;18.488;2023-02-22T01:13:44;101355.81;;;1.82;100.00
53619;BME280;39505;53.040;18.488;2023-02-22T01:13:57;101360.25;;;1.82;100.00
53619;BME280;39505;53.040;18.488;2023-02-22T01:14:11;101356.75;;;1.81;100.00